LEMH Airport Information

Runway Information
Runway 01L Length 7710 ft width 148 ft
Elevation 277 ft Threshold 0 ft Heading 9
Runway 19R Length 7710 ft Width 148 ft
Elevation 298 ft Threshold 0 ft Heading 189
Runway 01R Length 6890 ft width 148 ft
Elevation 272 ft Threshold 0 ft Heading 9
Runway 19L Length 6890 ft Width 148 ft
Elevation 298 ft Threshold 0 ft Heading 189
Airport Frequencies
Type APP Name APP Frequency 119.65 MHZ
Type ATIS Name ATIS Frequency 112.6 MHZ
Type GND Name GND Frequency 121.75 MHZ
Type TWR Name TWR Frequency 118.2 MHZ
Airport Navaids
Type VOR-DME Name Menorca Frequency 112600 KHZ
Type NDB Name Menorca Frequency 344 KHZ
Airport Weather Information & NOTAM
ADDS - METARS form results

(0025 UTC 18 January 2022)
Data provider http://aviationweather.gov/metar/data/
 
Forecast for: LEMH (MAHON/MENORCA IS, ES)
Text: TAF LEMH 172000Z 1721/1821 30006KT CAVOK TX14/1812Z TN05/1806Z
Forecast period: 2100 UTC 17 January 2022 to 2100 UTC 18 January 2022
Forecast type: FROM: standard forecast or significant change
Winds: from the WNW (300 degrees) at 7 MPH (6 knots; 3.1 m/s)
Visibility: 6 or more miles (10+ km)
Ceiling: unknown
Clouds: missing
Weather: no significant weather forecast for this period